Time;durP1;ratioP1;P1;durP2;ratioP2;P2;SDS_P1;SDS_P2;PMS_P1;PMS_P2;Temp;Humidity;BMP_temperature;BMP_pressure;BME280_temperature;BME280_humidity;BME280_pressure;Samples;Min_cycle;Max_cycle;Signal;HPM_P1;HPM_P2
2022/03/11 00:00:00;;;;;;;19.92;10.43;;;6.30;99.90;;;;;;5048213;28;20485;-72
2022/03/11 00:02:25;;;;;;;17.58;10.43;;;6.30;99.90;;;;;;5033857;28;20458;-73
2022/03/11 00:04:51;;;;;;;22.55;11.98;;;6.20;99.90;;;;;;5033464;28;20056;-72
2022/03/11 00:07:16;;;;;;;17.00;10.15;;;6.20;99.90;;;;;;5062616;28;20093;-73
2022/03/11 00:09:42;;;;;;;17.67;10.98;;;6.10;99.90;;;;;;5074036;28;20072;-73
2022/03/11 00:12:09;;;;;;;19.77;10.73;;;6.10;99.90;;;;;;5057251;28;20052;-72
2022/03/11 00:14:35;;;;;;;17.67;10.45;;;6.10;99.90;;;;;;5048917;28;20098;-73
2022/03/11 00:17:02;;;;;;;19.70;10.07;;;6.10;99.90;;;;;;5032540;28;20106;-73
2022/03/11 00:19:28;;;;;;;17.23;10.77;;;6.00;99.90;;;;;;5048910;28;20119;-73
2022/03/11 00:21:55;;;;;;;16.45;10.55;;;6.00;99.90;;;;;;5049726;28;20120;-73
2022/03/11 00:24:21;;;;;;;18.75;10.73;;;6.00;99.90;;;;;;5049289;28;20033;-73
2022/03/11 00:26:47;;;;;;;16.20;10.40;;;5.90;99.90;;;;;;5050176;28;20109;-73
2022/03/11 00:29:13;;;;;;;18.30;10.10;;;5.90;99.90;;;;;;5050356;28;20533;-72
2022/03/11 00:31:38;;;;;;;18.10;10.00;;;5.80;99.90;;;;;;5048308;28;20429;-73
2022/03/11 00:34:04;;;;;;;18.33;9.55;;;5.90;99.90;;;;;;5031994;28;20150;-73
2022/03/11 00:36:29;;;;;;;15.35;10.13;;;5.80;99.90;;;;;;5048722;28;20041;-73
2022/03/11 00:38:55;;;;;;;16.27;9.85;;;5.70;99.90;;;;;;5048601;28;20478;-73
2022/03/11 00:41:20;;;;;;;16.08;9.80;;;5.70;99.90;;;;;;5048616;28;20444;-72
2022/03/11 00:43:46;;;;;;;15.63;9.88;;;5.70;99.90;;;;;;5049412;28;20090;-73
2022/03/11 00:46:12;;;;;;;18.10;9.48;;;5.70;99.90;;;;;;5050007;28;20446;-72
2022/03/11 00:48:37;;;;;;;15.40;9.77;;;5.70;99.90;;;;;;5051599;28;20115;-73
2022/03/11 00:51:03;;;;;;;16.08;9.45;;;5.60;99.90;;;;;;5067027;28;20064;-72
2022/03/11 00:53:28;;;;;;;15.50;9.90;;;5.60;99.90;;;;;;5058895;28;20068;-73
2022/03/11 00:55:55;;;;;;;16.75;9.27;;;5.60;99.90;;;;;;5050430;28;20062;-73
2022/03/11 00:58:21;;;;;;;13.88;9.05;;;5.60;99.90;;;;;;5033101;28;20099;-72
2022/03/11 01:00:46;;;;;;;13.60;8.73;;;5.50;99.90;;;;;;5048665;28;20084;-73
2022/03/11 01:03:12;;;;;;;18.95;9.63;;;5.50;99.90;;;;;;5049785;28;20128;-72
2022/03/11 01:05:38;;;;;;;18.33;9.45;;;5.50;99.90;;;;;;5048311;28;20098;-73
2022/03/11 01:08:04;;;;;;;17.00;9.38;;;5.40;99.90;;;;;;5050056;28;20029;-73
2022/03/11 01:10:30;;;;;;;18.92;9.05;;;5.40;99.90;;;;;;5049925;28;20114;-73
2022/03/11 01:12:56;;;;;;;16.55;8.80;;;5.30;99.90;;;;;;5049733;28;20041;-73
2022/03/11 01:15:21;;;;;;;13.77;8.65;;;5.30;99.90;;;;;;5048527;28;20068;-73
2022/03/11 01:17:47;;;;;;;13.25;8.70;;;5.40;99.90;;;;;;5048440;28;20077;-72
2022/03/11 01:20:13;;;;;;;15.43;8.68;;;5.30;99.90;;;;;;5049671;28;20037;-72
2022/03/11 01:22:39;;;;;;;14.60;8.02;;;5.30;99.90;;;;;;5047478;28;20469;-73
2022/03/11 01:25:06;;;;;;;20.25;8.63;;;5.30;99.90;;;;;;5049497;28;20153;-72
2022/03/11 01:27:32;;;;;;;13.57;7.93;;;5.30;99.90;;;;;;5049715;28;20704;-72
2022/03/11 01:29:57;;;;;;;12.00;7.20;;;5.30;99.90;;;;;;5056074;28;20115;-72
2022/03/11 01:32:23;;;;;;;14.25;8.75;;;5.20;99.90;;;;;;5072921;28;20028;-73
2022/03/11 01:34:49;;;;;;;16.13;9.82;;;5.10;99.90;;;;;;5065577;28;20132;-72
2022/03/11 01:37:14;;;;;;;16.02;8.27;;;5.10;99.90;;;;;;5048198;28;20068;-72
2022/03/11 01:39:40;;;;;;;15.68;8.32;;;5.10;99.90;;;;;;5048211;28;20033;-73
2022/03/11 01:42:06;;;;;;;14.32;8.73;;;5.10;99.90;;;;;;5048778;28;20118;-73
2022/03/11 01:44:31;;;;;;;15.75;8.32;;;5.00;99.90;;;;;;5048266;28;20060;-72
2022/03/11 01:46:57;;;;;;;19.48;9.10;;;5.00;99.90;;;;;;5049406;28;20443;-72
2022/03/11 01:49:23;;;;;;;14.95;8.57;;;5.00;99.90;;;;;;5049655;28;20080;-72
2022/03/11 01:51:49;;;;;;;17.40;8.90;;;4.80;99.90;;;;;;5048754;28;20041;-72
2022/03/11 01:54:15;;;;;;;16.83;8.85;;;4.90;99.90;;;;;;5049417;28;20045;-73
2022/03/11 01:56:41;;;;;;;15.52;8.38;;;4.90;99.90;;;;;;5047914;28;20041;-72
2022/03/11 01:59:08;;;;;;;17.13;8.20;;;4.90;99.90;;;;;;5048208;28;20041;-72
2022/03/11 02:01:33;;;;;;;15.77;8.65;;;4.90;99.90;;;;;;5039946;28;20032;-72
2022/03/11 02:03:59;;;;;;;13.48;8.15;;;4.80;99.90;;;;;;5067901;28;20047;-73
2022/03/11 02:06:26;;;;;;;17.40;8.88;;;4.80;99.90;;;;;;5054757;28;20069;-72
2022/03/11 02:08:54;;;;;;;18.25;8.65;;;4.90;99.90;;;;;;5051354;28;20052;-72
2022/03/11 02:11:19;;;;;;;17.05;8.60;;;4.80;99.90;;;;;;5052866;28;20374;-72
2022/03/11 02:13:48;;;;;;;22.40;10.02;;;4.80;99.90;;;;;;5050210;28;20049;-72
2022/03/11 02:16:15;;;;;;;14.85;8.88;;;4.70;99.90;;;;;;5051018;28;20112;-72
2022/03/11 02:18:41;;;;;;;17.58;8.93;;;4.80;99.90;;;;;;5050934;28;20060;-72
2022/03/11 02:21:09;;;;;;;22.13;9.05;;;4.70;99.90;;;;;;5052747;28;20168;-72
2022/03/11 02:23:44;;;;;;;15.15;8.95;;;4.60;99.90;;;;;;5050353;28;20044;-73
2022/03/11 02:26:11;;;;;;;16.77;9.88;;;4.70;99.90;;;;;;5052628;28;20040;-72
2022/03/11 02:28:37;;;;;;;17.15;9.98;;;4.70;99.90;;;;;;5052765;28;20069;-73
2022/03/11 02:31:02;;;;;;;15.30;9.27;;;4.60;99.90;;;;;;5052550;28;20099;-73
2022/03/11 02:33:28;;;;;;;16.33;9.23;;;4.60;99.90;;;;;;5049952;28;20088;-73
2022/03/11 02:35:54;;;;;;;17.75;9.90;;;4.60;99.90;;;;;;5052481;28;20037;-72
2022/03/11 02:38:20;;;;;;;20.80;9.18;;;4.60;99.90;;;;;;5051085;28;20045;-72
2022/03/11 02:40:45;;;;;;;17.67;10.18;;;4.50;99.90;;;;;;5052374;28;20453;-72
2022/03/11 02:43:11;;;;;;;17.75;9.98;;;4.60;99.90;;;;;;5051532;28;20152;-72
2022/03/11 02:45:36;;;;;;;17.73;9.90;;;4.60;99.90;;;;;;5050775;28;20461;-72
2022/03/11 02:48:02;;;;;;;22.83;9.43;;;4.60;99.90;;;;;;5051893;28;20036;-72
2022/03/11 02:50:28;;;;;;;19.25;9.73;;;4.50;99.90;;;;;;5052156;28;20052;-72
2022/03/11 02:52:53;;;;;;;20.13;10.82;;;4.50;99.90;;;;;;5051866;28;20144;-72
2022/03/11 02:55:19;;;;;;;20.55;10.13;;;4.40;99.90;;;;;;5075005;28;20052;-72
2022/03/11 02:57:44;;;;;;;21.27;10.02;;;4.40;99.90;;;;;;5074030;28;20153;-72
2022/03/11 03:00:10;;;;;;;26.15;10.77;;;4.40;99.90;;;;;;5050897;28;20117;-72
2022/03/11 03:02:36;;;;;;;20.75;10.80;;;4.40;99.90;;;;;;5051133;28;20044;-72
2022/03/11 03:05:02;;;;;;;17.00;9.63;;;4.40;99.90;;;;;;5050439;28;20079;-72
2022/03/11 03:07:28;;;;;;;16.67;9.95;;;4.40;99.90;;;;;;5050300;28;20091;-73
2022/03/11 03:09:53;;;;;;;18.60;10.32;;;4.30;99.90;;;;;;5051836;28;20522;-72
2022/03/11 03:12:19;;;;;;;22.55;10.90;;;4.30;99.90;;;;;;5051449;28;20545;-73
2022/03/11 03:14:44;;;;;;;23.58;10.82;;;4.30;99.90;;;;;;5066020;28;20071;-72
2022/03/11 03:17:10;;;;;;;19.95;10.75;;;4.30;99.90;;;;;;5063299;28;20059;-73
2022/03/11 03:19:36;;;;;;;19.60;10.50;;;4.20;99.90;;;;;;5053359;28;20129;-72
2022/03/11 03:22:03;;;;;;;22.52;11.15;;;4.20;99.90;;;;;;5033646;28;20041;-73
2022/03/11 03:24:29;;;;;;;18.80;11.38;;;4.20;99.90;;;;;;5050512;28;20045;-73
2022/03/11 03:26:55;;;;;;;19.38;11.02;;;4.20;99.90;;;;;;5050148;28;20082;-72
2022/03/11 03:29:22;;;;;;;18.58;11.23;;;4.20;99.90;;;;;;5034122;28;20037;-72
2022/03/11 03:31:47;;;;;;;21.63;12.05;;;4.20;99.90;;;;;;5050580;28;20049;-73
2022/03/11 03:34:13;;;;;;;19.35;11.13;;;4.10;99.90;;;;;;5051480;28;20114;-72
2022/03/11 03:36:38;;;;;;;22.98;10.95;;;4.20;99.90;;;;;;5049660;28;20037;-72
2022/03/11 03:39:04;;;;;;;22.38;11.55;;;4.10;99.90;;;;;;5051272;28;20040;-72
2022/03/11 03:41:30;;;;;;;24.45;11.30;;;4.10;99.90;;;;;;5049570;28;20051;-73
2022/03/11 03:43:55;;;;;;;19.65;11.05;;;4.10;99.90;;;;;;5049288;28;20524;-73
2022/03/11 03:46:21;;;;;;;22.30;13.13;;;4.10;99.90;;;;;;5051101;28;20182;-73
2022/03/11 03:48:46;;;;;;;24.10;12.40;;;4.10;99.90;;;;;;5049668;28;20526;-73
2022/03/11 03:51:12;;;;;;;23.70;11.63;;;4.10;99.90;;;;;;5049553;28;20598;-74
2022/03/11 03:53:37;;;;;;;23.42;12.05;;;4.00;99.90;;;;;;5049187;28;20401;-73
2022/03/11 03:56:03;;;;;;;25.02;12.48;;;4.00;99.90;;;;;;5049925;28;20120;-73
2022/03/11 03:58:29;;;;;;;24.98;12.20;;;3.90;99.90;;;;;;5049276;28;20102;-72
2022/03/11 04:00:54;;;;;;;23.58;12.13;;;3.90;99.90;;;;;;5032695;28;20350;-72
2022/03/11 04:03:20;;;;;;;28.42;12.15;;;3.80;99.90;;;;;;5031833;28;20045;-73
2022/03/11 04:05:46;;;;;;;29.35;13.48;;;3.90;99.90;;;;;;5049214;28;20106;-72
2022/03/11 04:08:11;;;;;;;22.42;11.40;;;3.90;99.90;;;;;;5049032;28;20049;-73
2022/03/11 04:10:38;;;;;;;22.10;12.55;;;3.90;99.90;;;;;;5049291;28;20061;-73
2022/03/11 04:13:04;;;;;;;24.02;13.35;;;3.90;99.90;;;;;;5048322;28;20037;-73
2022/03/11 04:15:30;;;;;;;25.42;12.77;;;3.90;99.90;;;;;;5049996;28;20040;-72
2022/03/11 04:17:55;;;;;;;30.23;13.43;;;3.90;99.90;;;;;;5059987;28;20052;-73
2022/03/11 04:20:21;;;;;;;24.80;12.43;;;3.90;99.90;;;;;;5061148;28;20072;-72
2022/03/11 04:22:47;;;;;;;25.98;13.55;;;3.80;99.90;;;;;;5048829;28;20052;-73
2022/03/11 04:25:14;;;;;;;28.00;14.35;;;3.80;99.90;;;;;;5049771;28;20455;-72
2022/03/11 04:27:40;;;;;;;20.90;13.40;;;3.70;99.90;;;;;;5047107;28;20037;-72
2022/03/11 04:30:06;;;;;;;26.15;13.98;;;3.70;99.90;;;;;;5057898;28;20084;-72
2022/03/11 04:32:31;;;;;;;27.80;13.98;;;3.60;99.90;;;;;;5048040;28;20080;-72
2022/03/11 04:34:57;;;;;;;26.98;14.27;;;3.60;99.90;;;;;;5048648;28;20102;-72
2022/03/11 04:37:23;;;;;;;28.75;14.82;;;3.60;99.90;;;;;;5050102;28;20068;-72
2022/03/11 04:39:48;;;;;;;25.40;13.98;;;3.60;99.90;;;;;;5050150;28;20120;-72
2022/03/11 04:42:14;;;;;;;28.75;13.93;;;3.60;99.90;;;;;;5049175;28;20052;-72
2022/03/11 04:44:40;;;;;;;28.23;15.13;;;3.60;99.90;;;;;;5048784;28;20041;-72
2022/03/11 04:47:05;;;;;;;27.92;14.90;;;3.50;99.90;;;;;;5048285;28;20413;-72
2022/03/11 04:49:31;;;;;;;31.52;14.82;;;3.50;99.90;;;;;;5049854;28;20049;-72
2022/03/11 04:51:57;;;;;;;28.02;14.13;;;3.50;99.90;;;;;;5047720;28;20473;-73
2022/03/11 04:54:23;;;;;;;27.40;14.15;;;3.50;99.90;;;;;;5049865;28;20437;-72
2022/03/11 04:56:48;;;;;;;32.05;14.75;;;3.50;99.90;;;;;;5048196;28;20033;-72
2022/03/11 04:59:14;;;;;;;29.90;13.80;;;3.40;99.90;;;;;;5049851;28;20079;-73
2022/03/11 05:01:39;;;;;;;27.08;15.00;;;3.50;99.90;;;;;;5049538;28;20041;-72
2022/03/11 05:04:05;;;;;;;28.55;14.73;;;3.40;99.90;;;;;;5047803;28;20052;-71
2022/03/11 05:06:30;;;;;;;36.42;16.90;;;3.40;99.90;;;;;;5049717;28;20037;-71
2022/03/11 05:08:56;;;;;;;27.75;14.65;;;3.50;99.90;;;;;;5048299;28;20106;-71
2022/03/11 05:11:22;;;;;;;30.00;15.73;;;3.40;99.90;;;;;;5048281;28;20060;-72
2022/03/11 05:13:47;;;;;;;28.17;15.52;;;3.40;99.90;;;;;;5031371;28;20045;-71
2022/03/11 05:16:13;;;;;;;26.80;15.45;;;3.40;99.90;;;;;;5048337;28;20041;-71
2022/03/11 05:18:39;;;;;;;33.40;15.52;;;3.30;99.90;;;;;;5049359;28;20116;-72
2022/03/11 05:21:04;;;;;;;32.22;15.75;;;3.40;99.90;;;;;;5047981;28;20110;-72
2022/03/11 05:23:30;;;;;;;28.15;15.30;;;3.30;99.90;;;;;;5048751;28;20068;-72
2022/03/11 05:25:56;;;;;;;30.63;14.75;;;3.20;99.90;;;;;;5031415;28;20554;-72
2022/03/11 05:28:22;;;;;;;30.27;14.25;;;3.30;99.90;;;;;;5048391;28;20400;-72
2022/03/11 05:30:47;;;;;;;31.00;15.13;;;3.20;99.90;;;;;;5048641;28;20052;-72
2022/03/11 05:33:13;;;;;;;27.27;14.88;;;3.20;99.90;;;;;;5047617;28;20056;-72
2022/03/11 05:35:41;;;;;;;33.95;16.48;;;3.20;99.90;;;;;;5050019;28;20040;-72
2022/03/11 05:38:06;;;;;;;31.00;15.82;;;3.10;99.90;;;;;;5057425;28;20045;-72
2022/03/11 05:40:32;;;;;;;27.77;15.13;;;3.20;99.90;;;;;;5067827;28;20584;-72
2022/03/11 05:42:57;;;;;;;30.13;17.17;;;3.10;99.90;;;;;;5066284;28;20171;-72
2022/03/11 05:45:23;;;;;;;31.67;17.10;;;3.10;99.90;;;;;;5062515;28;20040;-72
2022/03/11 05:47:48;;;;;;;33.80;17.15;;;3.10;99.90;;;;;;5054347;28;20037;-72
2022/03/11 05:50:14;;;;;;;32.58;15.50;;;3.00;99.90;;;;;;5045675;28;20657;-72
2022/03/11 05:52:41;;;;;;;33.75;17.00;;;3.10;99.90;;;;;;5041686;28;20465;-72
2022/03/11 05:55:07;;;;;;;33.85;15.85;;;3.00;99.90;;;;;;5047727;28;20040;-72
2022/03/11 05:57:34;;;;;;;31.00;16.95;;;3.00;99.90;;;;;;5051599;28;20040;-72
2022/03/11 06:00:00;;;;;;;30.40;16.20;;;3.00;99.90;;;;;;5047644;28;20075;-72
2022/03/11 06:02:25;;;;;;;34.20;16.92;;;2.90;99.90;;;;;;5032317;28;20072;-72
2022/03/11 06:04:51;;;;;;;33.22;17.80;;;3.00;99.90;;;;;;5051218;28;20072;-72
2022/03/11 06:07:17;;;;;;;33.13;16.58;;;3.00;99.90;;;;;;5052861;28;20051;-71
2022/03/11 06:09:43;;;;;;;36.78;17.55;;;3.00;99.90;;;;;;5052787;28;20064;-72
2022/03/11 06:12:09;;;;;;;32.55;17.48;;;2.90;99.90;;;;;;5051817;28;20063;-72
2022/03/11 06:14:34;;;;;;;32.13;16.02;;;2.90;99.90;;;;;;5051812;28;20509;-73
2022/03/11 06:17:00;;;;;;;34.72;16.67;;;2.90;99.90;;;;;;5052394;28;20076;-72
2022/03/11 06:19:26;;;;;;;30.88;16.48;;;2.90;99.90;;;;;;5052725;28;20041;-72
2022/03/11 06:21:51;;;;;;;30.60;17.05;;;2.90;99.90;;;;;;5051860;28;20627;-73
2022/03/11 06:24:17;;;;;;;33.65;17.65;;;2.90;99.90;;;;;;5035485;28;20049;-72
2022/03/11 06:26:43;;;;;;;35.70;17.67;;;2.90;99.90;;;;;;5053141;28;20037;-73
2022/03/11 06:29:10;;;;;;;31.45;16.45;;;2.80;99.90;;;;;;5052824;28;20052;-73
2022/03/11 06:31:36;;;;;;;34.70;17.10;;;2.90;99.90;;;;;;5034033;28;20043;-73
2022/03/11 06:34:02;;;;;;;34.67;17.38;;;2.90;99.90;;;;;;5050810;28;20049;-73
2022/03/11 06:36:28;;;;;;;32.90;16.30;;;2.90;99.90;;;;;;5051582;28;20098;-73
2022/03/11 06:38:55;;;;;;;36.65;17.30;;;2.90;99.90;;;;;;5050918;28;20672;-73
2022/03/11 06:41:22;;;;;;;34.10;16.55;;;3.00;99.90;;;;;;5052052;28;20067;-73
2022/03/11 06:43:47;;;;;;;35.45;16.92;;;2.90;99.90;;;;;;5039296;28;20128;-73
2022/03/11 06:46:13;;;;;;;30.00;15.07;;;2.90;99.90;;;;;;5042620;28;20108;-73
2022/03/11 06:48:38;;;;;;;35.28;16.20;;;3.00;99.90;;;;;;5059952;28;20346;-73
2022/03/11 06:51:05;;;;;;;36.58;16.85;;;3.00;99.90;;;;;;5057583;28;20107;-73
2022/03/11 06:53:32;;;;;;;35.90;17.63;;;3.00;99.90;;;;;;5042200;28;20123;-73
2022/03/11 06:55:58;;;;;;;31.27;16.33;;;3.10;99.90;;;;;;5068254;28;20065;-73
2022/03/11 06:58:24;;;;;;;30.35;16.80;;;3.10;99.90;;;;;;5035026;28;20532;-73
2022/03/11 07:00:50;;;;;;;33.42;15.55;;;3.20;99.90;;;;;;5050360;28;20052;-73
2022/03/11 07:03:15;;;;;;;33.67;16.20;;;3.20;99.90;;;;;;5049450;28;20460;-73
2022/03/11 07:05:41;;;;;;;33.45;17.15;;;3.30;99.90;;;;;;5051962;28;20040;-72
2022/03/11 07:08:08;;;;;;;30.92;17.05;;;3.40;99.90;;;;;;5058772;28;20067;-71
2022/03/11 07:10:34;;;;;;;30.77;16.73;;;3.40;99.90;;;;;;5074793;28;20045;-72
2022/03/11 07:13:00;;;;;;;33.50;16.70;;;3.50;99.90;;;;;;5064057;28;20048;-73
2022/03/11 07:15:25;;;;;;;35.53;16.90;;;3.60;99.90;;;;;;5051608;28;20056;-73
2022/03/11 07:17:51;;;;;;;33.97;15.88;;;3.70;99.90;;;;;;5056521;28;20040;-73
2022/03/11 07:20:17;;;;;;;30.23;16.77;;;3.70;99.90;;;;;;5057063;28;20036;-73
2022/03/11 07:22:47;;;;;;;32.72;16.65;;;3.80;99.90;;;;;;5070755;28;20044;-72
2022/03/11 07:25:14;;;;;;;32.42;16.23;;;3.90;99.90;;;;;;5071958;28;20182;-71
2022/03/11 07:27:39;;;;;;;33.08;17.23;;;3.90;99.90;;;;;;5071703;28;20382;-72
2022/03/11 07:30:09;;;;;;;34.22;16.40;;;4.00;99.90;;;;;;5071608;28;20123;-72
2022/03/11 07:32:35;;;;;;;32.05;15.60;;;4.10;99.90;;;;;;5069835;28;20120;-72
2022/03/11 07:35:01;;;;;;;31.10;16.00;;;4.10;99.90;;;;;;5069532;28;20132;-72
2022/03/11 07:37:27;;;;;;;30.83;15.98;;;4.20;99.90;;;;;;5069732;28;20110;-72
2022/03/11 07:39:52;;;;;;;35.35;16.02;;;4.30;99.90;;;;;;5071156;28;20106;-72
2022/03/11 07:42:18;;;;;;;37.65;17.05;;;4.30;99.90;;;;;;5070316;28;20106;-71
2022/03/11 07:44:44;;;;;;;32.67;17.02;;;4.40;99.90;;;;;;5070877;28;20055;-72
2022/03/11 07:47:09;;;;;;;33.17;16.27;;;4.40;99.90;;;;;;5070950;28;20037;-72
2022/03/11 07:49:35;;;;;;;34.25;15.57;;;4.50;99.90;;;;;;5071122;28;20049;-72
2022/03/11 07:52:02;;;;;;;31.45;16.08;;;4.60;99.90;;;;;;5069996;28;20558;-72
2022/03/11 07:54:28;;;;;;;31.05;16.02;;;4.60;99.90;;;;;;5070907;28;20041;-73
2022/03/11 07:56:54;;;;;;;30.83;16.08;;;4.70;99.90;;;;;;5069372;28;20033;-72
2022/03/11 07:59:19;;;;;;;31.98;16.42;;;4.70;99.90;;;;;;5069172;28;20047;-72
2022/03/11 08:01:46;;;;;;;32.60;16.95;;;4.80;99.90;;;;;;5069510;28;20041;-72
2022/03/11 08:04:13;;;;;;;33.33;16.88;;;4.90;99.90;;;;;;5070731;28;20111;-72
2022/03/11 08:06:39;;;;;;;30.95;16.02;;;5.00;99.90;;;;;;5072507;28;20041;-72
2022/03/11 08:09:05;;;;;;;32.45;17.42;;;5.10;99.90;;;;;;5072432;28;20097;-74
2022/03/11 08:11:30;;;;;;;31.75;16.33;;;5.50;99.90;;;;;;5067850;28;20052;-79
2022/03/11 08:13:56;;;;;;;32.67;16.52;;;5.40;99.90;;;;;;5072662;28;20048;-76
2022/03/11 08:16:22;;;;;;;31.33;15.95;;;5.30;99.90;;;;;;5070550;28;20036;-76
2022/03/11 08:18:47;;;;;;;30.63;16.48;;;5.40;99.90;;;;;;5069156;28;20087;-75
2022/03/11 08:21:16;;;;;;;32.50;16.92;;;5.50;99.90;;;;;;5069119;28;20127;-77
2022/03/11 08:23:42;;;;;;;33.58;16.02;;;5.50;99.90;;;;;;5068813;28;20040;-77
2022/03/11 08:26:09;;;;;;;34.45;16.33;;;5.60;99.90;;;;;;5069236;28;20543;-77
2022/03/11 08:28:35;;;;;;;36.08;18.00;;;5.60;99.90;;;;;;5069619;28;20047;-78
2022/03/11 08:31:00;;;;;;;36.55;16.63;;;5.70;99.90;;;;;;5070130;28;20165;-77
2022/03/11 08:33:30;;;;;;;30.08;16.00;;;5.70;99.90;;;;;;5090335;28;20040;-76
2022/03/11 08:35:56;;;;;;;31.55;15.38;;;5.80;99.90;;;;;;5093223;28;20059;-77
2022/03/11 08:38:22;;;;;;;29.13;15.85;;;6.00;99.90;;;;;;5070688;28;20218;-77
2022/03/11 08:40:48;;;;;;;34.47;15.95;;;6.00;99.90;;;;;;5053664;28;20123;-77
2022/03/11 08:43:13;;;;;;;31.65;16.20;;;6.10;99.90;;;;;;5051986;28;20067;-75
2022/03/11 08:45:39;;;;;;;31.10;16.15;;;6.20;99.90;;;;;;5068792;28;20090;-76
2022/03/11 08:48:05;;;;;;;31.38;15.90;;;6.30;99.90;;;;;;5070252;28;20036;-75
2022/03/11 08:50:31;;;;;;;28.55;15.80;;;6.30;99.90;;;;;;5051944;28;20043;-76
2022/03/11 08:52:57;;;;;;;34.05;17.65;;;6.30;99.90;;;;;;5068251;28;20118;-76
2022/03/11 08:55:22;;;;;;;30.98;15.80;;;6.30;99.90;;;;;;5068893;28;20040;-76
2022/03/11 08:57:51;;;;;;;26.92;15.27;;;6.40;99.90;;;;;;5051836;28;20043;-76
2022/03/11 09:00:20;;;;;;;31.10;15.95;;;6.40;99.90;;;;;;5068487;28;20040;-76
2022/03/11 09:02:46;;;;;;;33.63;16.45;;;6.50;99.90;;;;;;5068073;28;20076;-77
2022/03/11 09:05:17;;;;;;;28.55;15.05;;;6.50;99.90;;;;;;5068779;28;20078;-77
2022/03/11 09:07:43;;;;;;;32.70;16.83;;;6.50;99.90;;;;;;5068777;28;20036;-76
2022/03/11 09:10:10;;;;;;;32.28;16.42;;;6.60;99.90;;;;;;5069098;28;20041;-77
2022/03/11 09:12:36;;;;;;;31.60;16.48;;;6.60;99.90;;;;;;5068221;28;20045;-77
2022/03/11 09:15:03;;;;;;;29.25;16.13;;;6.60;99.90;;;;;;5073470;28;20445;-77
2022/03/11 09:17:29;;;;;;;30.23;16.15;;;6.70;99.90;;;;;;5073990;28;20040;-76
2022/03/11 09:19:55;;;;;;;32.20;16.80;;;6.70;99.90;;;;;;5058453;28;20051;-76
2022/03/11 09:22:21;;;;;;;32.08;16.90;;;6.70;99.90;;;;;;5082214;28;20118;-78
2022/03/11 09:24:47;;;;;;;29.33;16.50;;;6.90;99.90;;;;;;5077439;28;20463;-76
2022/03/11 09:27:13;;;;;;;34.33;15.68;;;7.50;99.90;;;;;;5072101;28;20036;-72
2022/03/11 09:29:39;;;;;;;30.85;15.38;;;7.30;99.90;;;;;;5073568;28;20055;-72
2022/03/11 09:32:07;;;;;;;32.38;16.67;;;7.10;99.90;;;;;;5072690;28;20040;-72
2022/03/11 09:34:33;;;;;;;33.63;17.25;;;7.10;99.90;;;;;;5071089;28;20124;-72
2022/03/11 09:36:59;;;;;;;33.53;16.85;;;7.20;99.90;;;;;;5049482;28;20070;-72
2022/03/11 09:39:25;;;;;;;30.42;16.25;;;7.30;99.90;;;;;;5052552;28;20032;-71
2022/03/11 09:41:51;;;;;;;29.75;15.30;;;7.20;99.90;;;;;;5050927;28;20040;-70
2022/03/11 09:44:19;;;;;;;31.45;16.42;;;7.20;99.80;;;;;;5053343;28;20076;-71
2022/03/11 09:46:45;;;;;;;31.65;17.40;;;7.40;98.60;;;;;;5052066;28;20041;-71
2022/03/11 09:49:16;;;;;;;34.05;17.40;;;7.70;98.10;;;;;;5051198;28;20170;-71
2022/03/11 09:51:42;;;;;;;31.40;17.13;;;7.50;99.90;;;;;;5050319;28;20044;-71
2022/03/11 09:54:09;;;;;;;29.48;16.77;;;7.60;99.90;;;;;;5050912;28;20057;-71
2022/03/11 09:56:36;;;;;;;30.05;16.77;;;7.60;99.90;;;;;;5057372;28;20085;-71
2022/03/11 09:59:02;;;;;;;29.83;16.70;;;7.70;99.90;;;;;;5042532;28;20059;-72
2022/03/11 10:01:28;;;;;;;26.40;14.90;;;7.80;96.50;;;;;;5055513;28;20472;-71
2022/03/11 10:03:53;;;;;;;32.35;16.98;;;7.90;95.70;;;;;;5050959;28;20143;-71
2022/03/11 10:06:43;;;;;;;33.65;16.80;;;8.00;96.90;;;;;;5051647;28;20044;-71
2022/03/11 10:09:20;;;;;;;35.28;17.52;;;8.00;95.70;;;;;;5051582;28;20502;-71
2022/03/11 10:11:56;;;;;;;29.90;16.75;;;8.20;99.90;;;;;;5050683;28;20036;-70
2022/03/11 10:14:35;;;;;;;35.72;16.58;;;8.20;92.90;;;;;;5051762;28;20045;-71
2022/03/11 10:17:17;;;;;;;32.42;15.85;;;8.10;92.60;;;;;;5052618;28;20033;-70
2022/03/11 10:20:00;;;;;;;31.97;16.87;;;8.30;96.10;;;;;;5052642;28;20486;-71
2022/03/11 10:22:26;;;;;;;30.90;16.38;;;8.30;89.10;;;;;;5050550;28;20506;-71
2022/03/11 10:24:52;;;;;;;28.58;15.05;;;8.40;86.70;;;;;;5052317;28;20048;-72
2022/03/11 10:27:17;;;;;;;29.98;15.77;;;8.50;84.90;;;;;;5051820;28;20045;-71
2022/03/11 10:29:43;;;;;;;33.03;16.65;;;8.60;77.80;;;;;;5051428;28;20064;-71
2022/03/11 10:32:08;;;;;;;29.90;15.52;;;8.60;94.00;;;;;;5056198;28;20041;-72
2022/03/11 10:34:35;;;;;;;28.63;15.80;;;8.70;96.10;;;;;;5064761;28;20065;-71
2022/03/11 10:37:05;;;;;;;30.08;16.20;;;8.70;77.40;;;;;;5056978;28;20105;-71
2022/03/11 10:39:32;;;;;;;31.23;15.93;;;8.80;91.50;;;;;;5052267;28;20033;-72
2022/03/11 10:42:19;;;;;;;28.08;14.80;;;8.90;92.10;;;;;;5051768;28;20420;-71
2022/03/11 10:44:58;;;;;;;26.85;14.57;;;8.90;66.50;;;;;;5052255;28;20098;-71
2022/03/11 10:47:29;;;;;;;26.40;14.77;;;9.00;62.70;;;;;;5050759;28;20485;-71
2022/03/11 10:49:57;;;;;;;27.92;16.30;;;9.10;65.90;;;;;;5052201;28;20071;-71
2022/03/11 10:52:32;;;;;;;25.88;15.10;;;9.00;62.80;;;;;;5051124;28;20103;-71
2022/03/11 10:54:59;;;;;;;27.15;15.73;;;9.10;64.00;;;;;;5050577;28;20098;-71
2022/03/11 10:57:36;;;;;;;29.65;14.75;;;9.10;67.40;;;;;;5050749;28;20513;-71
2022/03/11 11:00:32;;;;;;;30.08;15.10;;;9.10;65.90;;;;;;5050321;28;20047;-70
2022/03/11 11:02:59;;;;;;;19.67;12.02;;;9.20;63.10;;;;;;5048423;28;20056;-72
2022/03/11 11:05:29;;;;;;;28.15;14.93;;;9.60;69.00;;;;;;5050912;28;20045;-79
2022/03/11 11:07:56;;;;;;;28.60;15.15;;;9.30;60.10;;;;;;5034031;28;20044;-72
2022/03/11 11:10:23;;;;;;;26.33;14.63;;;9.30;60.90;;;;;;5051955;28;20056;-72
2022/03/11 11:12:50;;;;;;;25.55;15.38;;;9.30;60.80;;;;;;5050977;28;20437;-71
2022/03/11 11:15:17;;;;;;;24.80;14.80;;;9.40;67.60;;;;;;5051097;28;20036;-72
2022/03/11 11:17:49;;;;;;;27.33;14.48;;;9.50;60.40;;;;;;5056524;28;20062;-72
2022/03/11 11:20:33;;;;;;;30.88;14.70;;;9.40;59.80;;;;;;5057896;28;20175;-72
2022/03/11 11:23:04;;;;;;;29.00;14.95;;;9.40;60.10;;;;;;5043653;28;20071;-72
2022/03/11 11:25:31;;;;;;;24.63;13.80;;;9.50;60.80;;;;;;5050293;28;20082;-78
2022/03/11 11:28:17;;;;;;;30.52;14.93;;;9.50;58.10;;;;;;5050531;28;20053;-77
2022/03/11 11:30:44;;;;;;;30.52;14.10;;;9.60;60.60;;;;;;5050379;28;20052;-77
2022/03/11 11:33:11;;;;;;;28.67;15.77;;;9.60;57.20;;;;;;5049341;28;20170;-77
2022/03/11 11:35:39;;;;;;;24.17;14.52;;;9.70;57.90;;;;;;5050376;28;20044;-78
2022/03/11 11:38:07;;;;;;;24.83;13.73;;;9.70;57.70;;;;;;5050170;28;20381;-78
2022/03/11 11:40:39;;;;;;;31.35;14.35;;;9.70;54.40;;;;;;5048766;28;20498;-78
2022/03/11 11:43:16;;;;;;;26.80;14.23;;;9.70;55.20;;;;;;5050810;28;20512;-78
2022/03/11 11:46:02;;;;;;;24.30;14.40;;;9.80;56.70;;;;;;5056571;28;20037;-78
2022/03/11 11:48:35;;;;;;;24.58;14.85;;;9.80;55.30;;;;;;5046263;28;20131;-71
2022/03/11 11:51:01;;;;;;;;;;;10.00;55.80;;;;;;5050508;28;20131;-72
2022/03/11 11:53:50;;;;;;;21.95;13.25;;;10.00;55.30;;;;;;5050243;28;20353;-72
2022/03/11 11:56:43;;;;;;;23.48;13.60;;;10.10;55.80;;;;;;5033266;28;20497;-72
2022/03/11 11:59:16;;;;;;;30.70;14.15;;;10.20;56.50;;;;;;5049248;28;20472;-71
2022/03/11 12:01:47;;;;;;;24.48;14.73;;;10.20;56.60;;;;;;5048783;28;20037;-71
2022/03/11 12:04:28;;;;;;;23.65;14.82;;;10.30;57.50;;;;;;5048952;28;20411;-72
2022/03/11 12:07:04;;;;;;;27.63;14.55;;;10.30;56.30;;;;;;5049408;28;20037;-72
2022/03/11 12:09:51;;;;;;;25.95;14.13;;;10.40;54.40;;;;;;5051096;28;20077;-72
2022/03/11 12:14:57;;;;;;;25.67;13.85;;;10.50;54.90;;;;;;5051051;28;20091;-72
2022/03/11 12:17:42;;;;;;;22.52;14.15;;;10.50;55.90;;;;;;5032571;28;20084;-71
2022/03/11 12:20:30;;;;;;;26.15;14.63;;;10.60;54.40;;;;;;5049075;28;20128;-72
2022/03/11 12:23:06;;;;;;;24.80;13.60;;;10.60;54.50;;;;;;5048283;28;20071;-72
2022/03/11 12:25:48;;;;;;;27.00;13.52;;;10.70;56.00;;;;;;5048939;28;20045;-72
2022/03/11 12:28:31;;;;;;;25.35;16.00;;;10.70;55.70;;;;;;5050555;28;20052;-71
2022/03/11 12:30:58;;;;;;;;;;;10.70;54.70;;;;;;5050623;28;20167;-71
2022/03/11 12:33:34;;;;;;;25.30;13.38;;;10.70;53.70;;;;;;5049381;28;19916;-72
2022/03/11 12:36:03;;;;;;;24.00;13.77;;;10.80;57.10;;;;;;5050390;28;20045;-71
2022/03/11 12:38:32;;;;;;;23.38;13.07;;;10.90;56.80;;;;;;5050663;28;20564;-77
2022/03/11 12:41:03;;;;;;;26.33;13.65;;;11.10;53.40;;;;;;5064514;28;20056;-80